Time;durP1;ratioP1;P1;durP2;ratioP2;P2;SDS_P1;SDS_P2;PMS_P1;PMS_P2;Temp;Humidity;BMP_temperature;BMP_pressure;BME280_temperature;BME280_humidity;BME280_pressure;Samples;Min_cycle;Max_cycle;Signal;HPM_P1;HPM_P2
2021/09/09 00:00:19;;;;;;;18.45;16.6;;;;;;;13.35;79.27734;95026.31;;;;
2021/09/09 00:01:19;;;;;;;18.45;16.6;;;;;;;13.35;79.27734;95026.31;;;;
2021/09/09 00:02:20;;;;;;;18.45;16.6;;;;;;;13.35;79.27734;95026.31;;;;
2021/09/09 00:03:20;;;;;;;18.9;16.9;;;;;;;13.21;79.67188;95014.28;;;;
2021/09/09 00:04:21;;;;;;;18.9;16.9;;;;;;;13.21;79.67188;95014.28;;;;
2021/09/09 00:05:22;;;;;;;18.9;16.9;;;;;;;13.21;79.67188;95014.28;;;;
2021/09/09 00:06:22;;;;;;;18.9;16.9;;;;;;;13.21;79.67188;95014.28;;;;
2021/09/09 00:07:23;;;;;;;18.9;16.9;;;;;;;13.21;79.67188;95014.28;;;;
2021/09/09 00:08:24;;;;;;;18.9;16.9;;;;;;;13.21;79.67188;95014.28;;;;
2021/09/09 00:09:24;;;;;;;18.9;16.9;;;;;;;13.21;79.67188;95014.28;;;;
2021/09/09 00:10:25;;;;;;;18.9;16.9;;;;;;;13.21;79.67188;95014.28;;;;
2021/09/09 00:11:25;;;;;;;18.9;16.9;;;;;;;13.21;79.67188;95014.28;;;;
2021/09/09 00:12:26;;;;;;;18.9;16.9;;;;;;;13.21;79.67188;95014.28;;;;
2021/09/09 00:13:26;;;;;;;18.9;16.9;;;;;;;13.21;79.67188;95014.28;;;;
2021/09/09 00:14:27;;;;;;;18.1;16.2;;;;;;;13.09;80.17578;95014.47;;;;
2021/09/09 00:15:27;;;;;;;18.1;16.2;;;;;;;13.09;80.17578;95014.47;;;;
2021/09/09 00:16:28;;;;;;;18.1;16.2;;;;;;;13.09;80.17578;95014.47;;;;
2021/09/09 00:17:29;;;;;;;18.1;16.2;;;;;;;13.09;80.17578;95014.47;;;;
2021/09/09 00:18:29;;;;;;;18.1;16.2;;;;;;;13.09;80.17578;95014.47;;;;
2021/09/09 00:19:30;;;;;;;18.1;16.2;;;;;;;13.09;80.17578;95014.47;;;;
2021/09/09 00:20:30;;;;;;;18.1;16.2;;;;;;;13.09;80.17578;95014.47;;;;
2021/09/09 00:21:31;;;;;;;18.1;16.2;;;;;;;13.09;80.17578;95014.47;;;;
2021/09/09 00:22:31;;;;;;;18.1;16.2;;;;;;;13.09;80.17578;95014.47;;;;
2021/09/09 00:23:32;;;;;;;18.1;16.2;;;;;;;13.09;80.17578;95014.47;;;;
2021/09/09 00:24:33;;;;;;;20.3;17.6;;;;;;;13;80.61133;95029.53;;;;
2021/09/09 00:25:33;;;;;;;20.3;17.6;;;;;;;13;80.61133;95029.53;;;;
2021/09/09 00:26:34;;;;;;;20.3;17.6;;;;;;;13;80.61133;95029.53;;;;
2021/09/09 00:27:34;;;;;;;20.3;17.6;;;;;;;13;80.61133;95029.53;;;;
2021/09/09 00:28:35;;;;;;;20.3;17.6;;;;;;;13;80.61133;95029.53;;;;
2021/09/09 00:29:35;;;;;;;20.3;17.6;;;;;;;13;80.61133;95029.53;;;;
2021/09/09 00:30:36;;;;;;;20.3;17.6;;;;;;;13;80.61133;95029.53;;;;
2021/09/09 00:31:36;;;;;;;20.3;17.6;;;;;;;13;80.61133;95029.53;;;;
2021/09/09 00:32:37;;;;;;;20.3;17.6;;;;;;;13;80.61133;95029.53;;;;
2021/09/09 00:33:38;;;;;;;20.3;17.6;;;;;;;13;80.61133;95029.53;;;;
2021/09/09 00:34:38;;;;;;;20.3;17.6;;;;;;;13;80.61133;95029.53;;;;
2021/09/09 00:35:39;;;;;;;18.55;16.55;;;;;;;12.93;81.04883;95027.15;;;;
2021/09/09 00:36:39;;;;;;;18.55;16.55;;;;;;;12.93;81.04883;95027.15;;;;
2021/09/09 00:37:40;;;;;;;18.55;16.55;;;;;;;12.93;81.04883;95027.15;;;;
2021/09/09 00:38:40;;;;;;;18.55;16.55;;;;;;;12.93;81.04883;95027.15;;;;
2021/09/09 00:39:41;;;;;;;18.55;16.55;;;;;;;12.93;81.04883;95027.15;;;;
2021/09/09 00:40:41;;;;;;;18.55;16.55;;;;;;;12.93;81.04883;95027.15;;;;
2021/09/09 00:41:42;;;;;;;18.55;16.55;;;;;;;12.93;81.04883;95027.15;;;;
2021/09/09 00:42:42;;;;;;;18.55;16.55;;;;;;;12.93;81.04883;95027.15;;;;
2021/09/09 00:43:43;;;;;;;18.55;16.55;;;;;;;12.93;81.04883;95027.15;;;;
2021/09/09 00:44:44;;;;;;;18.55;16.55;;;;;;;12.93;81.04883;95027.15;;;;
2021/09/09 00:45:44;;;;;;;18.95;16.8;;;;;;;12.87;81.46582;95029.11;;;;
2021/09/09 00:46:49;;;;;;;18.95;16.8;;;;;;;12.87;81.46582;95029.11;;;;
2021/09/09 00:47:59;;;;;;;18.95;16.8;;;;;;;12.87;81.46582;95029.11;;;;
2021/09/09 00:49:00;;;;;;;18.95;16.8;;;;;;;12.87;81.46582;95029.11;;;;
2021/09/09 00:50:00;;;;;;;18.95;16.8;;;;;;;12.87;81.46582;95029.11;;;;
2021/09/09 00:51:01;;;;;;;18.95;16.8;;;;;;;12.87;81.46582;95029.11;;;;
2021/09/09 00:52:02;;;;;;;18.95;16.8;;;;;;;12.87;81.46582;95029.11;;;;
2021/09/09 00:53:04;;;;;;;18.95;16.8;;;;;;;12.87;81.46582;95029.11;;;;
2021/09/09 00:54:07;;;;;;;18.95;16.8;;;;;;;12.87;81.46582;95029.11;;;;
2021/09/09 00:55:07;;;;;;;18.95;16.8;;;;;;;12.87;81.46582;95029.11;;;;
2021/09/09 00:56:08;;;;;;;18.95;16.8;;;;;;;12.87;81.46582;95029.11;;;;
2021/09/09 00:57:09;;;;;;;18.3;16.45;;;;;;;12.8;81.88477;95032.45;;;;
2021/09/09 00:58:09;;;;;;;18.3;16.45;;;;;;;12.8;81.88477;95032.45;;;;
2021/09/09 00:59:10;;;;;;;18.3;16.45;;;;;;;12.8;81.88477;95032.45;;;;
2021/09/09 01:00:11;;;;;;;18.3;16.45;;;;;;;12.8;81.88477;95032.45;;;;
2021/09/09 01:01:14;;;;;;;18.3;16.45;;;;;;;12.8;81.88477;95032.45;;;;
2021/09/09 01:02:14;;;;;;;18.3;16.45;;;;;;;12.8;81.88477;95032.45;;;;
2021/09/09 01:03:15;;;;;;;18.3;16.45;;;;;;;12.8;81.88477;95032.45;;;;
2021/09/09 01:04:15;;;;;;;18.3;16.45;;;;;;;12.8;81.88477;95032.45;;;;
2021/09/09 01:05:16;;;;;;;18.3;16.45;;;;;;;12.8;81.88477;95032.45;;;;
2021/09/09 01:06:18;;;;;;;18.3;16.45;;;;;;;12.8;81.88477;95032.45;;;;
2021/09/09 01:07:19;;;;;;;18.05;16;;;;;;;12.76;82.2832;95030.08;;;;
2021/09/09 01:08:19;;;;;;;18.05;16;;;;;;;12.76;82.2832;95030.08;;;;
2021/09/09 01:09:20;;;;;;;18.05;16;;;;;;;12.76;82.2832;95030.08;;;;
2021/09/09 01:10:21;;;;;;;18.05;16;;;;;;;12.76;82.2832;95030.08;;;;
2021/09/09 01:11:21;;;;;;;18.05;16;;;;;;;12.76;82.2832;95030.08;;;;
2021/09/09 01:12:22;;;;;;;18.05;16;;;;;;;12.76;82.2832;95030.08;;;;
2021/09/09 01:13:22;;;;;;;18.05;16;;;;;;;12.76;82.2832;95030.08;;;;
2021/09/09 01:14:23;;;;;;;18.05;16;;;;;;;12.76;82.2832;95030.08;;;;
2021/09/09 01:15:23;;;;;;;18.05;16;;;;;;;12.76;82.2832;95030.08;;;;
2021/09/09 01:16:24;;;;;;;18.05;16;;;;;;;12.76;82.2832;95030.08;;;;
2021/09/09 01:17:26;;;;;;;18.05;16;;;;;;;12.76;82.2832;95030.08;;;;
2021/09/09 01:18:27;;;;;;;18.6;16.65;;;;;;;12.79;82.55664;95028.09;;;;
2021/09/09 01:19:28;;;;;;;18.6;16.65;;;;;;;12.79;82.55664;95028.09;;;;
2021/09/09 01:20:28;;;;;;;18.6;16.65;;;;;;;12.79;82.55664;95028.09;;;;
2021/09/09 01:21:28;;;;;;;18.6;16.65;;;;;;;12.79;82.55664;95028.09;;;;
2021/09/09 01:22:30;;;;;;;18.6;16.65;;;;;;;12.79;82.55664;95028.09;;;;
2021/09/09 01:23:31;;;;;;;18.6;16.65;;;;;;;12.79;82.55664;95028.09;;;;
2021/09/09 01:24:31;;;;;;;18.6;16.65;;;;;;;12.79;82.55664;95028.09;;;;
2021/09/09 01:25:32;;;;;;;18.6;16.65;;;;;;;12.79;82.55664;95028.09;;;;
2021/09/09 01:26:34;;;;;;;18.6;16.65;;;;;;;12.79;82.55664;95028.09;;;;
2021/09/09 01:27:47;;;;;;;18.6;16.65;;;;;;;12.79;82.55664;95028.09;;;;
2021/09/09 01:28:48;;;;;;;18;16;;;;;;;12.79;82.84668;95024.17;;;;
2021/09/09 01:29:48;;;;;;;18;16;;;;;;;12.79;82.84668;95024.17;;;;
2021/09/09 01:30:49;;;;;;;18;16;;;;;;;12.79;82.84668;95024.17;;;;
2021/09/09 01:31:50;;;;;;;18;16;;;;;;;12.79;82.84668;95024.17;;;;
2021/09/09 01:32:51;;;;;;;18;16;;;;;;;12.79;82.84668;95024.17;;;;
2021/09/09 01:33:52;;;;;;;18;16;;;;;;;12.79;82.84668;95024.17;;;;
2021/09/09 01:34:54;;;;;;;18;16;;;;;;;12.79;82.84668;95024.17;;;;
2021/09/09 01:35:55;;;;;;;18;16;;;;;;;12.79;82.84668;95024.17;;;;
2021/09/09 01:36:55;;;;;;;18;16;;;;;;;12.79;82.84668;95024.17;;;;
2021/09/09 01:37:56;;;;;;;18;16;;;;;;;12.79;82.84668;95024.17;;;;
2021/09/09 01:38:56;;;;;;;18;16;;;;;;;12.79;82.84668;95024.17;;;;
2021/09/09 01:39:57;;;;;;;17.1;15.3;;;;;;;12.76;83.25977;95030.08;;;;
2021/09/09 01:40:57;;;;;;;17.1;15.3;;;;;;;12.76;83.25977;95030.08;;;;
2021/09/09 01:41:58;;;;;;;17.1;15.3;;;;;;;12.76;83.25977;95030.08;;;;
2021/09/09 01:42:59;;;;;;;17.1;15.3;;;;;;;12.76;83.25977;95030.08;;;;
2021/09/09 01:44:00;;;;;;;17.1;15.3;;;;;;;12.76;83.25977;95030.08;;;;
2021/09/09 01:45:01;;;;;;;17.1;15.3;;;;;;;12.76;83.25977;95030.08;;;;
2021/09/09 01:46:01;;;;;;;17.1;15.3;;;;;;;12.76;83.25977;95030.08;;;;
2021/09/09 01:47:02;;;;;;;17.1;15.3;;;;;;;12.76;83.25977;95030.08;;;;
2021/09/09 01:48:03;;;;;;;17.1;15.3;;;;;;;12.76;83.25977;95030.08;;;;
2021/09/09 01:49:04;;;;;;;17.1;15.3;;;;;;;12.76;83.25977;95030.08;;;;
2021/09/09 01:50:05;;;;;;;17.45;15.65;;;;;;;12.67;83.58691;95027.95;;;;
2021/09/09 01:51:06;;;;;;;17.45;15.65;;;;;;;12.67;83.58691;95027.95;;;;
2021/09/09 01:52:07;;;;;;;17.45;15.65;;;;;;;12.67;83.58691;95027.95;;;;
2021/09/09 01:53:08;;;;;;;17.45;15.65;;;;;;;12.67;83.58691;95027.95;;;;
2021/09/09 01:54:09;;;;;;;17.45;15.65;;;;;;;12.67;83.58691;95027.95;;;;
2021/09/09 01:55:10;;;;;;;17.45;15.65;;;;;;;12.67;83.58691;95027.95;;;;
2021/09/09 01:56:10;;;;;;;17.45;15.65;;;;;;;12.67;83.58691;95027.95;;;;
2021/09/09 01:57:11;;;;;;;17.45;15.65;;;;;;;12.67;83.58691;95027.95;;;;
2021/09/09 01:58:12;;;;;;;17.45;15.65;;;;;;;12.67;83.58691;95027.95;;;;
2021/09/09 01:59:12;;;;;;;17.45;15.65;;;;;;;12.67;83.58691;95027.95;;;;
2021/09/09 02:00:13;;;;;;;17.45;15.65;;;;;;;12.67;83.58691;95027.95;;;;
2021/09/09 02:01:14;;;;;;;17;15.25;;;;;;;12.61;83.9707;95025.31;;;;
2021/09/09 02:02:15;;;;;;;17;15.25;;;;;;;12.61;83.9707;95025.31;;;;
2021/09/09 02:03:16;;;;;;;17;15.25;;;;;;;12.61;83.9707;95025.31;;;;
2021/09/09 02:04:16;;;;;;;17;15.25;;;;;;;12.61;83.9707;95025.31;;;;
2021/09/09 02:05:17;;;;;;;17;15.25;;;;;;;12.61;83.9707;95025.31;;;;
2021/09/09 02:06:17;;;;;;;17;15.25;;;;;;;12.61;83.9707;95025.31;;;;
2021/09/09 02:07:18;;;;;;;17;15.25;;;;;;;12.61;83.9707;95025.31;;;;
2021/09/09 02:08:18;;;;;;;17;15.25;;;;;;;12.61;83.9707;95025.31;;;;
2021/09/09 02:09:19;;;;;;;17;15.25;;;;;;;12.61;83.9707;95025.31;;;;
2021/09/09 02:10:19;;;;;;;17;15.25;;;;;;;12.61;83.9707;95025.31;;;;
2021/09/09 02:11:21;;;;;;;17.3;14.9;;;;;;;12.57;84.39453;95034.48;;;;
2021/09/09 02:12:22;;;;;;;17.3;14.9;;;;;;;12.57;84.39453;95034.48;;;;
2021/09/09 02:13:22;;;;;;;17.3;14.9;;;;;;;12.57;84.39453;95034.48;;;;
2021/09/09 02:14:23;;;;;;;17.3;14.9;;;;;;;12.57;84.39453;95034.48;;;;
2021/09/09 02:15:23;;;;;;;17.3;14.9;;;;;;;12.57;84.39453;95034.48;;;;
2021/09/09 02:16:24;;;;;;;17.3;14.9;;;;;;;12.57;84.39453;95034.48;;;;
2021/09/09 02:17:25;;;;;;;17.3;14.9;;;;;;;12.57;84.39453;95034.48;;;;
2021/09/09 02:18:25;;;;;;;17.3;14.9;;;;;;;12.57;84.39453;95034.48;;;;
2021/09/09 02:19:26;;;;;;;17.3;14.9;;;;;;;12.57;84.39453;95034.48;;;;
2021/09/09 02:20:29;;;;;;;17.3;14.9;;;;;;;12.57;84.39453;95034.48;;;;
2021/09/09 02:21:29;;;;;;;17.3;14.9;;;;;;;12.57;84.39453;95034.48;;;;
2021/09/09 02:22:30;;;;;;;16.75;14.8;;;;;;;12.54;84.7832;95029.17;;;;
2021/09/09 02:23:30;;;;;;;16.75;14.8;;;;;;;12.54;84.7832;95029.17;;;;
2021/09/09 02:24:31;;;;;;;16.75;14.8;;;;;;;12.54;84.7832;95029.17;;;;
2021/09/09 02:25:32;;;;;;;16.75;14.8;;;;;;;12.54;84.7832;95029.17;;;;
2021/09/09 02:26:32;;;;;;;16.75;14.8;;;;;;;12.54;84.7832;95029.17;;;;
2021/09/09 02:27:33;;;;;;;16.75;14.8;;;;;;;12.54;84.7832;95029.17;;;;
2021/09/09 02:28:33;;;;;;;16.75;14.8;;;;;;;12.54;84.7832;95029.17;;;;
2021/09/09 02:29:34;;;;;;;16.75;14.8;;;;;;;12.54;84.7832;95029.17;;;;
2021/09/09 02:30:34;;;;;;;16.75;14.8;;;;;;;12.54;84.7832;95029.17;;;;
2021/09/09 02:31:35;;;;;;;16.75;14.8;;;;;;;12.54;84.7832;95029.17;;;;
2021/09/09 02:32:36;;;;;;;15.55;14.05;;;;;;;12.59;85.0498;95035.99;;;;
2021/09/09 02:33:36;;;;;;;15.55;14.05;;;;;;;12.59;85.0498;95035.99;;;;
2021/09/09 02:34:37;;;;;;;15.55;14.05;;;;;;;12.59;85.0498;95035.99;;;;
2021/09/09 02:35:37;;;;;;;15.55;14.05;;;;;;;12.59;85.0498;95035.99;;;;
2021/09/09 02:36:38;;;;;;;15.55;14.05;;;;;;;12.59;85.0498;95035.99;;;;
2021/09/09 02:37:39;;;;;;;15.55;14.05;;;;;;;12.59;85.0498;95035.99;;;;
2021/09/09 02:38:41;;;;;;;15.55;14.05;;;;;;;12.59;85.0498;95035.99;;;;
2021/09/09 02:39:46;;;;;;;15.55;14.05;;;;;;;12.59;85.0498;95035.99;;;;
2021/09/09 02:40:47;;;;;;;15.55;14.05;;;;;;;12.59;85.0498;95035.99;;;;
2021/09/09 02:41:47;;;;;;;15.55;14.05;;;;;;;12.59;85.0498;95035.99;;;;
2021/09/09 02:42:48;;;;;;;15.55;14.05;;;;;;;12.59;85.0498;95035.99;;;;
2021/09/09 02:43:48;;;;;;;16.15;14.45;;;;;;;12.6;85.34082;95031.4;;;;
2021/09/09 02:44:49;;;;;;;16.15;14.45;;;;;;;12.6;85.34082;95031.4;;;;
2021/09/09 02:45:49;;;;;;;16.15;14.45;;;;;;;12.6;85.34082;95031.4;;;;
2021/09/09 02:46:50;;;;;;;16.15;14.45;;;;;;;12.6;85.34082;95031.4;;;;
2021/09/09 02:47:51;;;;;;;16.15;14.45;;;;;;;12.6;85.34082;95031.4;;;;
2021/09/09 02:48:51;;;;;;;16.15;14.45;;;;;;;12.6;85.34082;95031.4;;;;
2021/09/09 02:49:52;;;;;;;16.15;14.45;;;;;;;12.6;85.34082;95031.4;;;;
2021/09/09 02:50:53;;;;;;;16.15;14.45;;;;;;;12.6;85.34082;95031.4;;;;
2021/09/09 02:51:53;;;;;;;16.15;14.45;;;;;;;12.6;85.34082;95031.4;;;;
2021/09/09 02:52:53;;;;;;;16.15;14.45;;;;;;;12.6;85.34082;95031.4;;;;
2021/09/09 02:53:54;;;;;;;16.7;15;;;;;;;12.57;85.7959;95024.63;;;;
2021/09/09 02:54:54;;;;;;;16.7;15;;;;;;;12.57;85.7959;95024.63;;;;
2021/09/09 02:55:55;;;;;;;16.7;15;;;;;;;12.57;85.7959;95024.63;;;;
2021/09/09 02:56:56;;;;;;;16.7;15;;;;;;;12.57;85.7959;95024.63;;;;
2021/09/09 02:57:56;;;;;;;16.7;15;;;;;;;12.57;85.7959;95024.63;;;;
2021/09/09 02:58:57;;;;;;;16.7;15;;;;;;;12.57;85.7959;95024.63;;;;
2021/09/09 02:59:59;;;;;;;16.7;15;;;;;;;12.57;85.7959;95024.63;;;;
2021/09/09 03:00:59;;;;;;;16.7;15;;;;;;;12.57;85.7959;95024.63;;;;
2021/09/09 03:02:02;;;;;;;16.7;15;;;;;;;12.57;85.7959;95024.63;;;;
2021/09/09 03:03:03;;;;;;;16.7;15;;;;;;;12.57;85.7959;95024.63;;;;
2021/09/09 03:04:04;;;;;;;16.7;15;;;;;;;12.57;85.7959;95024.63;;;;
2021/09/09 03:05:04;;;;;;;15;13.4;;;;;;;12.6;86.08008;95016.39;;;;
2021/09/09 03:06:07;;;;;;;15;13.4;;;;;;;12.6;86.08008;95016.39;;;;
2021/09/09 03:07:08;;;;;;;15;13.4;;;;;;;12.6;86.08008;95016.39;;;;
2021/09/09 03:08:08;;;;;;;15;13.4;;;;;;;12.6;86.08008;95016.39;;;;
2021/09/09 03:09:09;;;;;;;15;13.4;;;;;;;12.6;86.08008;95016.39;;;;
2021/09/09 03:10:09;;;;;;;15;13.4;;;;;;;12.6;86.08008;95016.39;;;;
2021/09/09 03:11:10;;;;;;;15;13.4;;;;;;;12.6;86.08008;95016.39;;;;
2021/09/09 03:12:11;;;;;;;15;13.4;;;;;;;12.6;86.08008;95016.39;;;;
2021/09/09 03:13:11;;;;;;;15;13.4;;;;;;;12.6;86.08008;95016.39;;;;
2021/09/09 03:14:12;;;;;;;15;13.4;;;;;;;12.6;86.08008;95016.39;;;;
2021/09/09 03:15:13;;;;;;;15;13.4;;;;;;;12.6;86.08008;95016.39;;;;
2021/09/09 03:16:13;;;;;;;15;13.4;;;;;;;12.6;86.08008;95016.39;;;;
2021/09/09 03:17:14;;;;;;;15;13.4;;;;;;;12.6;86.08008;95016.39;;;;
2021/09/09 03:18:14;;;;;;;15;13.4;;;;;;;12.6;86.08008;95016.39;;;;
2021/09/09 03:19:15;;;;;;;15;13.4;;;;;;;12.6;86.08008;95016.39;;;;
2021/09/09 03:20:15;;;;;;;15;13.4;;;;;;;12.6;86.08008;95016.39;;;;
2021/09/09 03:21:16;;;;;;;15;13.4;;;;;;;12.6;86.08008;95016.39;;;;
2021/09/09 03:22:17;;;;;;;15;13.4;;;;;;;12.6;86.08008;95016.39;;;;
2021/09/09 03:23:17;;;;;;;15;13.4;;;;;;;12.6;86.08008;95016.39;;;;
2021/09/09 03:24:18;;;;;;;15;13.4;;;;;;;12.6;86.08008;95016.39;;;;
2021/09/09 03:25:19;;;;;;;15;13.4;;;;;;;12.6;86.08008;95016.39;;;;
2021/09/09 03:26:19;;;;;;;18.35;14.5;;;;;;;12.57;86.72754;95006.19;;;;
2021/09/09 03:27:20;;;;;;;18.35;14.5;;;;;;;12.57;86.72754;95006.19;;;;
2021/09/09 03:28:20;;;;;;;18.35;14.5;;;;;;;12.57;86.72754;95006.19;;;;
2021/09/09 03:29:21;;;;;;;18.35;14.5;;;;;;;12.57;86.72754;95006.19;;;;
2021/09/09 03:30:21;;;;;;;18.35;14.5;;;;;;;12.57;86.72754;95006.19;;;;
2021/09/09 03:31:22;;;;;;;18.35;14.5;;;;;;;12.57;86.72754;95006.19;;;;
2021/09/09 03:32:22;;;;;;;18.35;14.5;;;;;;;12.57;86.72754;95006.19;;;;
2021/09/09 03:33:23;;;;;;;18.35;14.5;;;;;;;12.57;86.72754;95006.19;;;;
2021/09/09 03:34:23;;;;;;;18.35;14.5;;;;;;;12.57;86.72754;95006.19;;;;
2021/09/09 03:35:24;;;;;;;18.35;14.5;;;;;;;12.57;86.72754;95006.19;;;;
2021/09/09 03:36:24;;;;;;;16.2;14.5;;;;;;;12.49;87.03223;95009.34;;;;
2021/09/09 03:37:25;;;;;;;16.2;14.5;;;;;;;12.49;87.03223;95009.34;;;;
2021/09/09 03:38:25;;;;;;;16.2;14.5;;;;;;;12.49;87.03223;95009.34;;;;
2021/09/09 03:39:26;;;;;;;16.2;14.5;;;;;;;12.49;87.03223;95009.34;;;;
2021/09/09 03:40:26;;;;;;;16.2;14.5;;;;;;;12.49;87.03223;95009.34;;;;
2021/09/09 03:41:27;;;;;;;16.2;14.5;;;;;;;12.49;87.03223;95009.34;;;;
2021/09/09 03:42:27;;;;;;;16.2;14.5;;;;;;;12.49;87.03223;95009.34;;;;
2021/09/09 03:43:28;;;;;;;16.2;14.5;;;;;;;12.49;87.03223;95009.34;;;;
2021/09/09 03:44:28;;;;;;;16.2;14.5;;;;;;;12.49;87.03223;95009.34;;;;
2021/09/09 03:45:29;;;;;;;16.2;14.5;;;;;;;12.49;87.03223;95009.34;;;;
2021/09/09 03:46:30;;;;;;;16.2;14.5;;;;;;;12.49;87.03223;95009.34;;;;
2021/09/09 03:47:30;;;;;;;15.55;14;;;;;;;12.46;87.47852;95002.97;;;;
2021/09/09 03:48:31;;;;;;;15.55;14;;;;;;;12.46;87.47852;95002.97;;;;
2021/09/09 03:49:31;;;;;;;15.55;14;;;;;;;12.46;87.47852;95002.97;;;;
2021/09/09 03:50:32;;;;;;;15.55;14;;;;;;;12.46;87.47852;95002.97;;;;
2021/09/09 03:51:33;;;;;;;15.55;14;;;;;;;12.46;87.47852;95002.97;;;;
2021/09/09 03:52:33;;;;;;;15.55;14;;;;;;;12.46;87.47852;95002.97;;;;
2021/09/09 03:53:34;;;;;;;15.55;14;;;;;;;12.46;87.47852;95002.97;;;;
2021/09/09 03:54:34;;;;;;;15.55;14;;;;;;;12.46;87.47852;95002.97;;;;
2021/09/09 03:55:34;;;;;;;15.55;14;;;;;;;12.46;87.47852;95002.97;;;;
2021/09/09 03:56:35;;;;;;;15.55;14;;;;;;;12.46;87.47852;95002.97;;;;
2021/09/09 03:57:35;;;;;;;15.55;14;;;;;;;12.46;87.47852;95002.97;;;;
2021/09/09 03:58:36;;;;;;;16.15;14.45;;;;;;;12.38;87.81445;95001.64;;;;
2021/09/09 03:59:36;;;;;;;16.15;14.45;;;;;;;12.38;87.81445;95001.64;;;;
2021/09/09 04:00:37;;;;;;;16.15;14.45;;;;;;;12.38;87.81445;95001.64;;;;
2021/09/09 04:01:37;;;;;;;16.15;14.45;;;;;;;12.38;87.81445;95001.64;;;;
2021/09/09 04:02:38;;;;;;;16.15;14.45;;;;;;;12.38;87.81445;95001.64;;;;
2021/09/09 04:03:38;;;;;;;16.15;14.45;;;;;;;12.38;87.81445;95001.64;;;;
2021/09/09 04:04:39;;;;;;;16.15;14.45;;;;;;;12.38;87.81445;95001.64;;;;
2021/09/09 04:05:39;;;;;;;16.15;14.45;;;;;;;12.38;87.81445;95001.64;;;;
2021/09/09 04:06:40;;;;;;;16.15;14.45;;;;;;;12.38;87.81445;95001.64;;;;
2021/09/09 04:07:40;;;;;;;16.15;14.45;;;;;;;12.38;87.81445;95001.64;;;;
2021/09/09 04:08:41;;;;;;;17;14.95;;;;;;;12.44;88.14844;95004.71;;;;
2021/09/09 04:09:41;;;;;;;17;14.95;;;;;;;12.44;88.14844;95004.71;;;;
2021/09/09 04:10:42;;;;;;;17;14.95;;;;;;;12.44;88.14844;95004.71;;;;
2021/09/09 04:11:42;;;;;;;17;14.95;;;;;;;12.44;88.14844;95004.71;;;;
2021/09/09 04:12:43;;;;;;;17;14.95;;;;;;;12.44;88.14844;95004.71;;;;
2021/09/09 04:13:43;;;;;;;17;14.95;;;;;;;12.44;88.14844;95004.71;;;;
2021/09/09 04:14:44;;;;;;;17;14.95;;;;;;;12.44;88.14844;95004.71;;;;
2021/09/09 04:15:44;;;;;;;17;14.95;;;;;;;12.44;88.14844;95004.71;;;;
2021/09/09 04:16:45;;;;;;;17;14.95;;;;;;;12.44;88.14844;95004.71;;;;
2021/09/09 04:17:45;;;;;;;17;14.95;;;;;;;12.44;88.14844;95004.71;;;;
2021/09/09 04:18:45;;;;;;;17;14.95;;;;;;;12.44;88.14844;95004.71;;;;
2021/09/09 04:19:46;;;;;;;16.25;14.5;;;;;;;12.38;88.32617;95001.23;;;;
2021/09/09 04:20:47;;;;;;;16.25;14.5;;;;;;;12.38;88.32617;95001.23;;;;
2021/09/09 04:21:47;;;;;;;16.25;14.5;;;;;;;12.38;88.32617;95001.23;;;;
2021/09/09 04:22:48;;;;;;;16.25;14.5;;;;;;;12.38;88.32617;95001.23;;;;
2021/09/09 04:23:48;;;;;;;16.25;14.5;;;;;;;12.38;88.32617;95001.23;;;;
2021/09/09 04:24:48;;;;;;;16.25;14.5;;;;;;;12.38;88.32617;95001.23;;;;
2021/09/09 04:25:49;;;;;;;16.25;14.5;;;;;;;12.38;88.32617;95001.23;;;;
2021/09/09 04:26:49;;;;;;;16.25;14.5;;;;;;;12.38;88.32617;95001.23;;;;
2021/09/09 04:27:50;;;;;;;16.25;14.5;;;;;;;12.38;88.32617;95001.23;;;;
2021/09/09 04:28:50;;;;;;;16.25;14.5;;;;;;;12.38;88.32617;95001.23;;;;
2021/09/09 04:29:51;;;;;;;17.25;15;;;;;;;12.34;88.58594;95002.83;;;;
2021/09/09 04:30:52;;;;;;;17.25;15;;;;;;;12.34;88.58594;95002.83;;;;
2021/09/09 04:31:52;;;;;;;17.25;15;;;;;;;12.34;88.58594;95002.83;;;;
2021/09/09 04:32:53;;;;;;;17.25;15;;;;;;;12.34;88.58594;95002.83;;;;
2021/09/09 04:33:53;;;;;;;17.25;15;;;;;;;12.34;88.58594;95002.83;;;;
2021/09/09 04:34:54;;;;;;;17.25;15;;;;;;;12.34;88.58594;95002.83;;;;
2021/09/09 04:35:54;;;;;;;17.25;15;;;;;;;12.34;88.58594;95002.83;;;;
2021/09/09 04:36:55;;;;;;;17.25;15;;;;;;;12.34;88.58594;95002.83;;;;
2021/09/09 04:37:55;;;;;;;17.25;15;;;;;;;12.34;88.58594;95002.83;;;;
2021/09/09 04:38:56;;;;;;;17.25;15;;;;;;;12.34;88.58594;95002.83;;;;
2021/09/09 04:39:56;;;;;;;17.25;15;;;;;;;12.34;88.58594;95002.83;;;;
2021/09/09 04:40:57;;;;;;;15.4;13.9;;;;;;;12.23;88.90723;95014.61;;;;
2021/09/09 04:41:58;;;;;;;15.4;13.9;;;;;;;12.23;88.90723;95014.61;;;;
2021/09/09 04:42:58;;;;;;;15.4;13.9;;;;;;;12.23;88.90723;95014.61;;;;
2021/09/09 04:43:59;;;;;;;15.4;13.9;;;;;;;12.23;88.90723;95014.61;;;;
2021/09/09 04:44:59;;;;;;;15.4;13.9;;;;;;;12.23;88.90723;95014.61;;;;
2021/09/09 04:46:00;;;;;;;15.4;13.9;;;;;;;12.23;88.90723;95014.61;;;;
2021/09/09 04:47:00;;;;;;;15.4;13.9;;;;;;;12.23;88.90723;95014.61;;;;
2021/09/09 04:48:02;;;;;;;15.4;13.9;;;;;;;12.23;88.90723;95014.61;;;;
2021/09/09 04:49:02;;;;;;;15.4;13.9;;;;;;;12.23;88.90723;95014.61;;;;
2021/09/09 04:50:03;;;;;;;15.4;13.9;;;;;;;12.23;88.90723;95014.61;;;;
2021/09/09 04:51:05;;;;;;;16.35;14.65;;;;;;;12.12;89.33594;95029.91;;;;
2021/09/09 04:52:05;;;;;;;16.35;14.65;;;;;;;12.12;89.33594;95029.91;;;;
2021/09/09 04:53:06;;;;;;;16.35;14.65;;;;;;;12.12;89.33594;95029.91;;;;
2021/09/09 04:54:07;;;;;;;16.35;14.65;;;;;;;12.12;89.33594;95029.91;;;;
2021/09/09 04:55:07;;;;;;;16.35;14.65;;;;;;;12.12;89.33594;95029.91;;;;
2021/09/09 04:56:08;;;;;;;16.35;14.65;;;;;;;12.12;89.33594;95029.91;;;;
2021/09/09 04:57:08;;;;;;;16.35;14.65;;;;;;;12.12;89.33594;95029.91;;;;
2021/09/09 04:58:09;;;;;;;16.35;14.65;;;;;;;12.12;89.33594;95029.91;;;;
2021/09/09 04:59:10;;;;;;;16.35;14.65;;;;;;;12.12;89.33594;95029.91;;;;
2021/09/09 05:00:10;;;;;;;16.35;14.65;;;;;;;12.12;89.33594;95029.91;;;;
2021/09/09 05:01:11;;;;;;;16.35;14.65;;;;;;;12.12;89.33594;95029.91;;;;
2021/09/09 05:02:11;;;;;;;18;15.45;;;;;;;12.07;89.67676;95018.99;;;;
2021/09/09 05:03:12;;;;;;;18;15.45;;;;;;;12.07;89.67676;95018.99;;;;
2021/09/09 05:04:12;;;;;;;18;15.45;;;;;;;12.07;89.67676;95018.99;;;;
2021/09/09 05:05:13;;;;;;;18;15.45;;;;;;;12.07;89.67676;95018.99;;;;
2021/09/09 05:06:14;;;;;;;18;15.45;;;;;;;12.07;89.67676;95018.99;;;;
2021/09/09 05:07:14;;;;;;;18;15.45;;;;;;;12.07;89.67676;95018.99;;;;
2021/09/09 05:08:14;;;;;;;18;15.45;;;;;;;12.07;89.67676;95018.99;;;;
2021/09/09 05:09:15;;;;;;;18;15.45;;;;;;;12.07;89.67676;95018.99;;;;
2021/09/09 05:10:15;;;;;;;18;15.45;;;;;;;12.07;89.67676;95018.99;;;;
2021/09/09 05:11:17;;;;;;;18;15.45;;;;;;;12.07;89.67676;95018.99;;;;
2021/09/09 05:12:17;;;;;;;18;15.45;;;;;;;12.07;89.67676;95018.99;;;;
2021/09/09 05:13:18;;;;;;;15.35;13.8;;;;;;;12.14;89.76758;95019.62;;;;
2021/09/09 05:14:18;;;;;;;15.35;13.8;;;;;;;12.14;89.76758;95019.62;;;;
2021/09/09 05:15:19;;;;;;;15.35;13.8;;;;;;;12.14;89.76758;95019.62;;;;
2021/09/09 05:16:19;;;;;;;15.35;13.8;;;;;;;12.14;89.76758;95019.62;;;;
2021/09/09 05:17:20;;;;;;;15.35;13.8;;;;;;;12.14;89.76758;95019.62;;;;
2021/09/09 05:18:20;;;;;;;15.35;13.8;;;;;;;12.14;89.76758;95019.62;;;;
2021/09/09 05:19:21;;;;;;;15.35;13.8;;;;;;;12.14;89.76758;95019.62;;;;
2021/09/09 05:20:21;;;;;;;15.35;13.8;;;;;;;12.14;89.76758;95019.62;;;;
2021/09/09 05:21:22;;;;;;;15.35;13.8;;;;;;;12.14;89.76758;95019.62;;;;
2021/09/09 05:22:22;;;;;;;15.35;13.8;;;;;;;12.14;89.76758;95019.62;;;;
2021/09/09 05:23:23;;;;;;;17.25;14.85;;;;;;;12.19;89.85156;95016.17;;;;
2021/09/09 05:24:23;;;;;;;17.25;14.85;;;;;;;12.19;89.85156;95016.17;;;;
2021/09/09 05:25:24;;;;;;;17.25;14.85;;;;;;;12.19;89.85156;95016.17;;;;
2021/09/09 05:26:24;;;;;;;17.25;14.85;;;;;;;12.19;89.85156;95016.17;;;;
2021/09/09 05:27:25;;;;;;;17.25;14.85;;;;;;;12.19;89.85156;95016.17;;;;
2021/09/09 05:28:25;;;;;;;17.25;14.85;;;;;;;12.19;89.85156;95016.17;;;;
2021/09/09 05:29:26;;;;;;;17.25;14.85;;;;;;;12.19;89.85156;95016.17;;;;
2021/09/09 05:30:26;;;;;;;17.25;14.85;;;;;;;12.19;89.85156;95016.17;;;;
2021/09/09 05:31:27;;;;;;;17.25;14.85;;;;;;;12.19;89.85156;95016.17;;;;
2021/09/09 05:32:27;;;;;;;17.25;14.85;;;;;;;12.19;89.85156;95016.17;;;;
2021/09/09 05:33:28;;;;;;;17.25;14.85;;;;;;;12.19;89.85156;95016.17;;;;
2021/09/09 05:34:28;;;;;;;18.95;15.15;;;;;;;12.36;89.98242;95015.02;;;;
2021/09/09 05:35:29;;;;;;;18.95;15.15;;;;;;;12.36;89.98242;95015.02;;;;
2021/09/09 05:36:29;;;;;;;18.95;15.15;;;;;;;12.36;89.98242;95015.02;;;;
2021/09/09 05:37:30;;;;;;;18.95;15.15;;;;;;;12.36;89.98242;95015.02;;;;
2021/09/09 05:38:30;;;;;;;18.95;15.15;;;;;;;12.36;89.98242;95015.02;;;;
2021/09/09 05:39:31;;;;;;;18.95;15.15;;;;;;;12.36;89.98242;95015.02;;;;
2021/09/09 05:40:31;;;;;;;18.95;15.15;;;;;;;12.36;89.98242;95015.02;;;;
2021/09/09 05:41:32;;;;;;;18.95;15.15;;;;;;;12.36;89.98242;95015.02;;;;
2021/09/09 05:42:32;;;;;;;18.95;15.15;;;;;;;12.36;89.98242;95015.02;;;;
2021/09/09 05:43:33;;;;;;;18.95;15.15;;;;;;;12.36;89.98242;95015.02;;;;